Time;durP1;ratioP1;P1;durP2;ratioP2;P2;SDS_P1;SDS_P2;PMS_P1;PMS_P2;Temp;Humidity;BMP_temperature;BMP_pressure;BME280_temperature;BME280_humidity;BME280_pressure;Samples;Min_cycle;Max_cycle;Signal;HPM_P1;HPM_P2
2022/09/17 00:01:32;;;;;;;6.38;1.38;;;19.80;54.90;;;;;;5048379;28;20059;-58
2022/09/17 00:04:03;;;;;;;7.47;1.20;;;19.80;54.90;;;;;;5049182;28;20176;-58
2022/09/17 00:06:34;;;;;;;5.68;1.40;;;19.90;55.10;;;;;;5050745;28;20028;-57
2022/09/17 00:09:05;;;;;;;5.35;1.20;;;19.90;54.30;;;;;;5060106;28;20058;-57
2022/09/17 00:11:37;;;;;;;5.65;1.45;;;19.90;54.20;;;;;;5049818;28;20032;-58
2022/09/17 00:14:08;;;;;;;4.22;1.20;;;19.90;54.30;;;;;;5060307;28;20025;-57
2022/09/17 00:16:42;;;;;;;6.75;1.23;;;19.90;54.20;;;;;;5075404;28;20043;-57
2022/09/17 00:19:21;;;;;;;3.78;1.25;;;19.90;54.10;;;;;;5067962;28;20029;-56
2022/09/17 00:21:50;;;;;;;5.22;1.45;;;20.00;53.90;;;;;;5077552;28;20107;-57
2022/09/17 00:24:19;;;;;;;4.80;1.10;;;20.00;54.20;;;;;;5064937;28;20104;-57
2022/09/17 00:26:49;;;;;;;5.82;1.50;;;19.90;54.70;;;;;;5067009;28;20025;-56
2022/09/17 00:29:17;;;;;;;6.40;1.70;;;20.00;54.30;;;;;;5032283;28;20515;-57
2022/09/17 00:31:45;;;;;;;4.68;1.30;;;20.00;54.10;;;;;;5052843;28;20416;-57
2022/09/17 00:34:13;;;;;;;4.10;1.40;;;20.00;53.60;;;;;;5063087;28;20078;-61
2022/09/17 00:36:42;;;;;;;7.13;1.40;;;20.00;53.80;;;;;;5056700;28;20057;-63
2022/09/17 00:39:11;;;;;;;4.38;1.25;;;20.00;53.40;;;;;;5049935;28;20044;-61
2022/09/17 00:41:40;;;;;;;5.35;1.33;;;20.00;53.10;;;;;;5055379;28;20059;-61
2022/09/17 00:44:49;;;;;;;4.30;1.30;;;20.10;53.70;;;;;;5067649;28;20556;-59
2022/09/17 00:47:28;;;;;;;4.90;1.30;;;20.10;53.70;;;;;;5068061;28;20032;-61
2022/09/17 00:50:16;;;;;;;5.47;1.30;;;20.10;53.70;;;;;;5069154;28;20125;-61
2022/09/17 00:53:05;;;;;;;4.95;1.30;;;20.10;53.40;;;;;;5069214;28;20379;-61
2022/09/17 00:55:43;;;;;;;6.63;1.27;;;20.00;53.00;;;;;;5049690;28;20025;-60
2022/09/17 00:58:14;;;;;;;5.47;1.20;;;20.10;53.10;;;;;;5060239;28;20028;-60
2022/09/17 01:00:45;;;;;;;7.60;1.30;;;20.10;53.10;;;;;;5056747;28;20021;-62
2022/09/17 01:03:14;;;;;;;5.50;1.30;;;20.10;53.30;;;;;;5080178;28;20487;-61
2022/09/17 01:06:21;;;;;;;5.43;1.40;;;20.10;53.40;;;;;;5061835;28;20025;-60
2022/09/17 01:08:53;;;;;;;4.68;1.08;;;20.10;53.20;;;;;;5060739;28;20105;-59
2022/09/17 01:11:33;;;;;;;2.67;1.10;;;20.20;53.60;;;;;;5056172;28;20025;-59
2022/09/17 01:14:14;;;;;;;4.20;1.20;;;20.20;53.80;;;;;;5070065;28;20701;-60
2022/09/17 01:16:55;;;;;;;6.18;1.90;;;20.20;53.70;;;;;;5058382;28;20052;-60
2022/09/17 01:20:01;;;;;;;7.60;1.20;;;20.10;53.70;;;;;;5052281;28;20033;-59
2022/09/17 01:22:50;;;;;;;4.85;1.20;;;20.20;53.60;;;;;;5034857;28;20041;-60
2022/09/17 01:25:28;;;;;;;5.60;1.50;;;20.10;53.70;;;;;;5069396;28;20162;-60
2022/09/17 01:28:54;;;;;;;5.22;1.40;;;20.10;53.90;;;;;;5067261;28;20411;-60
2022/09/17 01:31:34;;;;;;;5.50;1.40;;;20.20;53.90;;;;;;4992227;28;20034;-59
2022/09/17 01:34:09;;;;;;;5.30;1.50;;;20.20;55.10;;;;;;4990369;28;20039;-59
2022/09/17 01:36:51;;;;;;;5.97;1.30;;;20.20;55.60;;;;;;5035760;28;20033;-59
2022/09/17 01:39:30;;;;;;;6.32;1.45;;;20.20;55.90;;;;;;5058484;28;20442;-59
2022/09/17 01:42:16;;;;;;;4.55;1.25;;;20.10;56.20;;;;;;5072069;28;20039;-59
2022/09/17 01:45:02;;;;;;;7.22;1.48;;;20.20;56.60;;;;;;5066456;28;20048;-60
2022/09/17 01:47:55;;;;;;;4.85;1.40;;;20.10;56.70;;;;;;5070708;28;20193;-59
2022/09/17 01:50:30;;;;;;;3.70;1.10;;;20.20;56.90;;;;;;5071851;28;20082;-60
2022/09/17 01:52:59;;;;;;;4.95;1.30;;;20.20;56.20;;;;;;5072190;28;20031;-59
2022/09/17 01:55:32;;;;;;;3.72;1.20;;;20.20;56.30;;;;;;5071513;28;20016;-60
2022/09/17 01:58:10;;;;;;;4.25;1.45;;;20.20;56.40;;;;;;5072225;28;20029;-59
2022/09/17 02:00:42;;;;;;;6.03;1.33;;;20.20;56.40;;;;;;5059756;28;20032;-59
2022/09/17 02:03:29;;;;;;;6.50;1.30;;;20.30;56.20;;;;;;5051106;28;20132;-59
2022/09/17 02:06:12;;;;;;;6.35;1.48;;;20.30;56.30;;;;;;5050537;28;20619;-60
2022/09/17 02:08:58;;;;;;;5.10;1.40;;;20.30;56.50;;;;;;5050264;28;20021;-60
2022/09/17 02:11:26;;;;;;;5.28;1.58;;;20.30;56.80;;;;;;5069268;28;20127;-59
2022/09/17 02:14:07;;;;;;;5.53;1.90;;;20.30;59.00;;;;;;5063286;28;20079;-59
2022/09/17 02:16:39;;;;;;;4.97;1.52;;;20.30;63.30;;;;;;5064119;28;20025;-59
2022/09/17 02:19:09;;;;;;;;;;;20.30;63.80;;;;;;5050186;28;20040;-60
2022/09/17 02:21:49;;;;;;;4.07;1.17;;;20.30;64.50;;;;;;5051451;28;20042;-60
2022/09/17 02:24:31;;;;;;;4.57;1.33;;;20.20;65.50;;;;;;5050480;28;20033;-60
2022/09/17 02:27:41;;;;;;;6.00;1.67;;;20.20;66.60;;;;;;5050161;28;20029;-60
2022/09/17 02:30:10;;;;;;;5.20;1.27;;;20.20;68.30;;;;;;5042506;28;20124;-60
2022/09/17 02:32:38;;;;;;;4.25;1.45;;;20.10;69.50;;;;;;5051671;28;20032;-59
2022/09/17 02:35:07;;;;;;;4.32;1.40;;;20.10;69.10;;;;;;5049761;28;20021;-59
2022/09/17 02:37:35;;;;;;;4.97;1.45;;;20.10;68.10;;;;;;5051011;28;20021;-59
2022/09/17 02:40:04;;;;;;;4.50;1.38;;;20.10;67.30;;;;;;5050165;28;20098;-60
2022/09/17 02:42:56;;;;;;;4.07;1.20;;;20.10;67.10;;;;;;5050859;28;20095;-59
2022/09/17 02:46:08;;;;;;;4.30;1.27;;;20.10;66.60;;;;;;5064936;28;20178;-60
2022/09/17 02:49:09;;;;;;;4.13;1.27;;;20.10;65.50;;;;;;5065299;28;20049;-61
2022/09/17 02:51:40;;;;;;;5.18;1.02;;;20.10;64.50;;;;;;5071250;28;20059;-60
2022/09/17 02:54:23;;;;;;;3.63;1.13;;;20.00;63.70;;;;;;5069314;28;20036;-60
2022/09/17 02:57:09;;;;;;;3.10;1.10;;;20.10;63.20;;;;;;5065789;28;20028;-61
2022/09/17 03:00:16;;;;;;;3.33;1.17;;;20.10;62.00;;;;;;5061923;28;20408;-60
2022/09/17 03:02:53;;;;;;;4.25;1.13;;;20.10;61.00;;;;;;5070192;28;20040;-59
2022/09/17 03:05:24;;;;;;;4.95;1.25;;;20.10;60.60;;;;;;5068927;28;20447;-59
2022/09/17 03:07:54;;;;;;;3.55;1.13;;;20.10;60.70;;;;;;5069000;28;20043;-60
2022/09/17 03:10:23;;;;;;;2.97;1.00;;;20.10;61.60;;;;;;5069552;28;20082;-59
2022/09/17 03:12:53;;;;;;;5.85;1.67;;;20.10;62.60;;;;;;5061186;28;20025;-60
2022/09/17 03:15:21;;;;;;;6.45;1.38;;;20.20;62.90;;;;;;5062848;28;20032;-60
2022/09/17 03:17:49;;;;;;;4.75;1.20;;;20.20;61.90;;;;;;5070113;28;20016;-60
2022/09/17 03:20:17;;;;;;;3.85;1.20;;;20.20;61.10;;;;;;5070084;28;20047;-60
2022/09/17 03:22:46;;;;;;;4.05;1.33;;;20.20;60.90;;;;;;5069685;28;20043;-60
2022/09/17 03:25:14;;;;;;;5.68;1.50;;;20.20;59.90;;;;;;5068385;28;20027;-60
2022/09/17 03:27:42;;;;;;;3.63;1.20;;;20.20;60.40;;;;;;5070038;28;20025;-60
2022/09/17 03:30:10;;;;;;;3.72;1.05;;;20.20;63.10;;;;;;5067732;28;20099;-60
2022/09/17 03:32:38;;;;;;;5.60;1.50;;;20.10;64.10;;;;;;5066415;28;20031;-59
2022/09/17 03:35:07;;;;;;;4.82;1.13;;;20.00;64.90;;;;;;5059302;28;20479;-59
2022/09/17 03:37:35;;;;;;;6.72;1.30;;;20.00;67.90;;;;;;5070033;28;20435;-60
2022/09/17 03:40:04;;;;;;;4.10;1.00;;;20.10;68.60;;;;;;5051287;28;20061;-60
2022/09/17 03:42:32;;;;;;;5.43;1.30;;;20.10;70.50;;;;;;5049492;28;20040;-60
2022/09/17 03:45:00;;;;;;;3.03;1.02;;;20.00;70.20;;;;;;5049457;28;20029;-59
2022/09/17 03:47:28;;;;;;;3.92;1.27;;;20.00;69.90;;;;;;5048697;28;20036;-59
2022/09/17 03:49:57;;;;;;;3.42;1.00;;;20.00;69.80;;;;;;5048368;28;20104;-59
2022/09/17 03:52:25;;;;;;;4.05;1.02;;;20.00;69.70;;;;;;5069122;28;20107;-60
2022/09/17 03:54:53;;;;;;;3.72;1.17;;;20.00;69.40;;;;;;5068913;28;20356;-60
2022/09/17 03:57:21;;;;;;;3.67;1.30;;;20.00;68.00;;;;;;5050644;28;20036;-60
2022/09/17 03:59:50;;;;;;;3.50;1.08;;;20.10;67.00;;;;;;5052701;28;20029;-59
2022/09/17 04:02:18;;;;;;;4.00;1.20;;;20.00;64.40;;;;;;5063818;28;20028;-59
2022/09/17 04:04:46;;;;;;;4.90;1.00;;;20.10;64.30;;;;;;5065539;28;20029;-54
2022/09/17 04:07:14;;;;;;;4.15;1.10;;;20.10;63.50;;;;;;5059850;28;20032;-59
2022/09/17 04:09:42;;;;;;;3.50;1.02;;;20.10;63.10;;;;;;5047574;28;20053;-62
2022/09/17 04:12:10;;;;;;;3.03;0.90;;;20.10;62.20;;;;;;5049958;28;20074;-59
2022/09/17 04:14:38;;;;;;;3.65;1.00;;;20.20;61.60;;;;;;5048271;28;20029;-59
2022/09/17 04:17:06;;;;;;;2.10;0.90;;;20.20;61.10;;;;;;5048732;28;20016;-59
2022/09/17 04:19:34;;;;;;;3.42;1.10;;;20.30;59.70;;;;;;5049973;28;20032;-59
2022/09/17 04:22:02;;;;;;;3.53;0.90;;;20.30;58.70;;;;;;5049291;28;20056;-59
2022/09/17 04:24:31;;;;;;;4.07;1.17;;;20.30;58.40;;;;;;5049000;28;20052;-60
2022/09/17 04:26:59;;;;;;;2.60;0.90;;;20.30;58.60;;;;;;5048135;28;20024;-60
2022/09/17 04:29:27;;;;;;;2.25;0.88;;;20.30;58.00;;;;;;5049219;28;20025;-59
2022/09/17 04:31:55;;;;;;;3.03;1.00;;;20.30;58.20;;;;;;5049718;28;20049;-59
2022/09/17 04:34:23;;;;;;;2.88;0.90;;;20.30;57.60;;;;;;5047158;28;20083;-60
2022/09/17 04:36:51;;;;;;;3.15;1.00;;;20.40;56.90;;;;;;5049568;28;20032;-59
2022/09/17 04:39:20;;;;;;;2.58;1.00;;;20.40;56.80;;;;;;5047509;28;20041;-60
2022/09/17 04:41:48;;;;;;;3.63;0.95;;;20.50;56.50;;;;;;5047988;28;20036;-59
2022/09/17 04:44:16;;;;;;;3.75;1.00;;;20.50;56.80;;;;;;5051181;28;20037;-59
2022/09/17 04:46:44;;;;;;;3.53;1.25;;;20.50;56.00;;;;;;5052358;28;20025;-59
2022/09/17 04:49:13;;;;;;;3.08;1.15;;;20.50;55.70;;;;;;5051757;28;20035;-59
2022/09/17 04:51:41;;;;;;;3.65;1.17;;;20.50;54.50;;;;;;5053797;28;20597;-59
2022/09/17 04:54:09;;;;;;;2.90;1.02;;;20.50;54.60;;;;;;5053185;28;20422;-58
2022/09/17 04:56:37;;;;;;;2.78;1.00;;;20.50;54.50;;;;;;5052103;28;20021;-59
2022/09/17 04:59:05;;;;;;;3.40;1.20;;;20.50;54.00;;;;;;5052511;28;20044;-58
2022/09/17 05:01:33;;;;;;;3.40;1.00;;;20.60;53.70;;;;;;5052984;28;20028;-59
2022/09/17 05:04:02;;;;;;;3.38;1.15;;;20.60;53.40;;;;;;5052539;28;20040;-59
2022/09/17 05:06:30;;;;;;;3.00;0.90;;;20.60;52.90;;;;;;5052974;28;20033;-59
2022/09/17 05:08:58;;;;;;;2.85;0.98;;;20.60;52.80;;;;;;5052331;28;20091;-59
2022/09/17 05:11:27;;;;;;;1.83;0.80;;;20.60;52.80;;;;;;5052756;28;20021;-59
2022/09/17 05:13:55;;;;;;;4.63;1.00;;;20.60;52.60;;;;;;5052071;28;20032;-59
2022/09/17 05:16:23;;;;;;;1.77;0.70;;;20.60;52.90;;;;;;5051148;28;20021;-59
2022/09/17 05:18:52;;;;;;;2.45;1.00;;;20.60;52.60;;;;;;5052502;28;20025;-59
2022/09/17 05:21:20;;;;;;;2.60;0.93;;;20.70;52.80;;;;;;5051331;28;20048;-59
2022/09/17 05:23:49;;;;;;;3.42;1.00;;;20.70;52.80;;;;;;5051907;28;20041;-59
2022/09/17 05:26:16;;;;;;;3.30;1.00;;;20.70;52.80;;;;;;5051040;28;20032;-59
2022/09/17 05:28:45;;;;;;;3.47;0.90;;;20.70;52.60;;;;;;5050541;28;20429;-59
2022/09/17 05:31:13;;;;;;;3.72;1.00;;;20.80;52.50;;;;;;5052438;28;20028;-59
2022/09/17 05:33:41;;;;;;;3.85;0.90;;;20.70;52.10;;;;;;5052654;28;20029;-59
2022/09/17 05:36:09;;;;;;;2.80;0.93;;;20.70;51.90;;;;;;5064541;28;20025;-56
2022/09/17 05:38:38;;;;;;;3.13;1.00;;;20.70;51.60;;;;;;5058827;28;20052;-57
2022/09/17 05:41:07;;;;;;;3.00;0.93;;;20.70;51.90;;;;;;5036275;28;20029;-56
2022/09/17 05:43:35;;;;;;;2.50;0.90;;;20.70;51.70;;;;;;5063508;28;20044;-54
2022/09/17 05:46:04;;;;;;;6.75;0.98;;;20.80;51.90;;;;;;5050607;28;20127;-53
2022/09/17 05:48:32;;;;;;;3.00;0.90;;;20.80;51.80;;;;;;5050808;28;20029;-54
2022/09/17 05:51:00;;;;;;;5.72;1.20;;;20.80;51.10;;;;;;5051863;28;20100;-52
2022/09/17 05:53:29;;;;;;;2.45;0.80;;;20.80;50.80;;;;;;5057271;28;20028;-59
2022/09/17 05:56:00;;;;;;;3.90;0.90;;;20.80;50.70;;;;;;5065896;28;20040;-54
2022/09/17 05:58:28;;;;;;;2.55;0.90;;;20.70;50.60;;;;;;5050332;28;20470;-53
2022/09/17 06:01:00;;;;;;;4.43;1.17;;;20.80;51.40;;;;;;5038047;28;20025;-54
2022/09/17 06:03:29;;;;;;;2.60;1.10;;;20.80;51.40;;;;;;5050253;28;20413;-52
2022/09/17 06:05:59;;;;;;;6.15;1.05;;;20.80;51.10;;;;;;5051704;28;20128;-53
2022/09/17 06:08:29;;;;;;;2.80;0.90;;;20.80;51.70;;;;;;5050938;28;20021;-55
2022/09/17 06:10:57;;;;;;;3.85;1.20;;;20.90;51.60;;;;;;5058191;28;20016;-57
2022/09/17 06:13:25;;;;;;;2.78;0.93;;;20.90;51.40;;;;;;5051903;28;20033;-54
2022/09/17 06:15:54;;;;;;;4.70;1.20;;;20.90;51.10;;;;;;5051539;28;20055;-54
2022/09/17 06:18:22;;;;;;;2.28;0.90;;;20.90;51.10;;;;;;5054938;28;20025;-53
2022/09/17 06:20:54;;;;;;;2.08;0.90;;;20.90;51.00;;;;;;5059454;28;20554;-53
2022/09/17 06:23:23;;;;;;;3.40;1.00;;;20.90;51.40;;;;;;5056256;28;20044;-53
2022/09/17 06:25:56;;;;;;;2.88;1.00;;;20.90;51.50;;;;;;5054377;28;20036;-53
2022/09/17 06:28:25;;;;;;;3.05;0.98;;;21.00;52.20;;;;;;5049431;28;20037;-53
2022/09/17 06:30:56;;;;;;;3.40;1.10;;;21.00;52.70;;;;;;5060104;28;20017;-54
2022/09/17 06:33:25;;;;;;;6.90;1.15;;;21.00;52.90;;;;;;5051609;28;20450;-52
2022/09/17 06:36:01;;;;;;;3.33;1.08;;;21.00;53.10;;;;;;5039778;28;20060;-53
2022/09/17 06:38:32;;;;;;;4.38;1.25;;;21.00;52.60;;;;;;5060936;28;20490;-53
2022/09/17 06:41:00;;;;;;;3.00;1.10;;;21.00;53.10;;;;;;5056499;28;20056;-53
2022/09/17 06:43:28;;;;;;;3.40;1.20;;;21.00;53.30;;;;;;5050076;28;20047;-53
2022/09/17 06:46:04;;;;;;;4.15;1.15;;;21.00;53.20;;;;;;5058008;28;20017;-53
2022/09/17 06:48:34;;;;;;;4.70;1.10;;;21.00;53.40;;;;;;5053792;28;20044;-53
2022/09/17 06:51:05;;;;;;;4.18;1.20;;;21.00;53.10;;;;;;5062669;28;20441;-52
2022/09/17 06:53:36;;;;;;;4.40;1.30;;;21.00;53.70;;;;;;5061163;28;20427;-53
2022/09/17 06:56:05;;;;;;;4.60;1.20;;;21.00;53.60;;;;;;5057139;28;20321;-54
2022/09/17 06:58:40;;;;;;;2.83;1.02;;;21.00;53.20;;;;;;5057591;28;20138;-53
2022/09/17 07:01:12;;;;;;;2.97;1.10;;;21.00;52.30;;;;;;5059697;28;20505;-53
2022/09/17 07:03:42;;;;;;;3.25;1.13;;;21.00;52.30;;;;;;5049908;28;20483;-53
2022/09/17 07:06:11;;;;;;;11.05;1.52;;;21.00;52.40;;;;;;5048821;28;20033;-53
2022/09/17 07:08:40;;;;;;;2.65;0.98;;;21.00;51.80;;;;;;5070315;28;20040;-54
2022/09/17 07:11:09;;;;;;;3.03;0.98;;;21.00;51.00;;;;;;5070706;28;20490;-53
2022/09/17 07:13:37;;;;;;;2.55;1.00;;;21.00;50.50;;;;;;5070229;28;20032;-53
2022/09/17 07:16:07;;;;;;;3.20;1.00;;;20.90;50.20;;;;;;5070615;28;20372;-53
2022/09/17 07:18:35;;;;;;;3.00;1.08;;;20.90;50.10;;;;;;5070224;28;20033;-53
2022/09/17 07:21:05;;;;;;;3.10;1.05;;;20.90;49.90;;;;;;5069177;28;20100;-54
2022/09/17 07:23:35;;;;;;;3.20;1.00;;;20.90;49.80;;;;;;5069471;28;20495;-53
2022/09/17 07:26:06;;;;;;;3.90;0.88;;;20.80;49.40;;;;;;5068697;28;20048;-53
2022/09/17 07:28:37;;;;;;;3.50;1.00;;;20.80;49.40;;;;;;5069739;28;20039;-53
2022/09/17 07:31:07;;;;;;;3.38;1.02;;;20.70;49.40;;;;;;5062273;28;20048;-54
2022/09/17 07:33:36;;;;;;;2.90;1.00;;;20.70;49.60;;;;;;5052224;28;20534;-53
2022/09/17 07:36:09;;;;;;;3.00;1.00;;;20.60;49.70;;;;;;5052963;28;20021;-55
2022/09/17 07:38:38;;;;;;;4.63;1.10;;;20.60;50.20;;;;;;5065878;28;20174;-52
2022/09/17 07:41:12;;;;;;;3.50;1.00;;;20.60;50.60;;;;;;5060974;28;20089;-54
2022/09/17 07:43:41;;;;;;;4.05;1.20;;;20.60;51.30;;;;;;5059811;28;20063;-59
2022/09/17 07:46:17;;;;;;;4.03;1.33;;;20.60;51.60;;;;;;5061119;28;20483;-57
2022/09/17 07:48:46;;;;;;;3.90;1.63;;;20.60;51.70;;;;;;5068315;28;20028;-56
2022/09/17 07:51:19;;;;;;;3.72;1.20;;;20.60;52.00;;;;;;5064634;28;20047;-54
2022/09/17 07:53:50;;;;;;;4.18;1.40;;;20.60;52.10;;;;;;5064564;28;20025;-53
2022/09/17 07:56:19;;;;;;;3.28;1.10;;;20.60;52.50;;;;;;5059149;28;20032;-57
2022/09/17 07:58:47;;;;;;;3.40;1.13;;;20.60;52.50;;;;;;5063222;28;20017;-55
2022/09/17 08:01:16;;;;;;;4.85;1.23;;;20.60;53.20;;;;;;5060881;28;20020;-56
2022/09/17 08:03:49;;;;;;;8.48;1.33;;;20.60;53.40;;;;;;5049583;28;20029;-56
2022/09/17 08:06:24;;;;;;;4.18;1.15;;;20.60;53.90;;;;;;5052756;28;20032;-55
2022/09/17 08:08:53;;;;;;;3.78;1.30;;;20.60;53.90;;;;;;5060253;28;20402;-56
2022/09/17 08:11:24;;;;;;;5.82;1.20;;;20.60;54.20;;;;;;5077712;28;20111;-56
2022/09/17 08:13:53;;;;;;;4.47;1.50;;;20.60;55.30;;;;;;5068701;28;20024;-55
2022/09/17 08:16:23;;;;;;;4.32;1.55;;;20.70;56.00;;;;;;5075484;28;20369;-55
2022/09/17 08:18:56;;;;;;;5.55;1.45;;;20.70;55.50;;;;;;5067496;28;20111;-55
2022/09/17 08:21:25;;;;;;;5.68;1.60;;;20.70;55.90;;;;;;5079185;28;20040;-54
2022/09/17 08:23:52;;;;;;;5.22;1.60;;;20.70;56.40;;;;;;5056923;28;20033;-54
2022/09/17 08:26:22;;;;;;;4.15;1.52;;;20.80;56.40;;;;;;5067447;28;20029;-55
2022/09/17 08:28:53;;;;;;;6.97;1.40;;;20.80;55.90;;;;;;5068870;28;20107;-54
2022/09/17 08:31:24;;;;;;;4.47;1.40;;;20.80;56.30;;;;;;5068349;28;20094;-55
2022/09/17 08:33:52;;;;;;;6.80;1.70;;;20.80;57.60;;;;;;5059373;28;20078;-53
2022/09/17 08:36:21;;;;;;;5.85;1.55;;;20.80;57.00;;;;;;5068415;28;20028;-53
2022/09/17 08:38:53;;;;;;;4.40;1.45;;;20.80;56.40;;;;;;5068541;28;20060;-53
2022/09/17 08:41:39;;;;;;;;;;;20.80;56.80;;;;;;5065251;28;20037;-54
2022/09/17 08:44:26;;;;;;;3.80;1.52;;;20.80;57.30;;;;;;5048972;28;20387;-53
2022/09/17 08:47:18;;;;;;;6.95;1.50;;;20.80;59.20;;;;;;5049507;28;20357;-53
2022/09/17 08:49:56;;;;;;;4.30;1.60;;;20.90;59.50;;;;;;5047776;28;20040;-60
2022/09/17 08:52:46;;;;;;;4.85;1.60;;;20.90;59.60;;;;;;5054712;28;20033;-53
2022/09/17 08:55:43;;;;;;;3.88;1.60;;;20.90;59.40;;;;;;5065439;28;20067;-53
2022/09/17 08:58:15;;;;;;;6.07;1.60;;;20.90;57.40;;;;;;5047704;28;20025;-63
2022/09/17 09:01:13;;;;;;;5.90;1.50;;;20.90;55.90;;;;;;5049373;28;20115;-54
2022/09/17 09:04:01;;;;;;;5.72;1.60;;;20.90;56.30;;;;;;5058286;28;20033;-55
2022/09/17 09:06:41;;;;;;;5.38;1.50;;;20.90;56.30;;;;;;5059734;28;20098;-53
2022/09/17 09:09:15;;;;;;;6.38;1.55;;;20.80;55.60;;;;;;5064050;28;20033;-56
2022/09/17 09:11:45;;;;;;;5.30;1.63;;;20.80;55.20;;;;;;5064075;28;20059;-53
2022/09/17 09:14:25;;;;;;;4.78;1.70;;;20.80;54.90;;;;;;5048490;28;20017;-55
2022/09/17 09:16:56;;;;;;;15.80;1.73;;;20.80;54.90;;;;;;5048955;28;20178;-54
2022/09/17 09:19:38;;;;;;;6.30;1.67;;;20.80;55.00;;;;;;5048776;28;20021;-54
2022/09/17 09:22:37;;;;;;;4.03;1.42;;;20.70;54.80;;;;;;5048835;28;20029;-55
2022/09/17 09:25:13;;;;;;;5.95;1.55;;;20.70;54.50;;;;;;5049828;28;20044;-54
2022/09/17 09:27:54;;;;;;;5.70;1.30;;;20.70;54.60;;;;;;5049285;28;20079;-54
2022/09/17 09:30:24;;;;;;;5.53;1.60;;;20.70;54.60;;;;;;5051667;28;20062;-54
2022/09/17 09:33:13;;;;;;;5.78;1.73;;;20.60;54.50;;;;;;5052557;28;20056;-55
2022/09/17 09:35:43;;;;;;;5.05;1.60;;;20.70;54.60;;;;;;5063194;28;20116;-55
2022/09/17 09:38:30;;;;;;;7.93;1.60;;;20.60;54.50;;;;;;5055084;28;20029;-55
2022/09/17 09:41:05;;;;;;;6.70;1.75;;;20.60;54.80;;;;;;5049773;28;20131;-54
2022/09/17 09:43:45;;;;;;;7.55;1.70;;;20.60;54.70;;;;;;5050200;28;20045;-54
2022/09/17 09:46:31;;;;;;;9.05;1.90;;;20.60;54.60;;;;;;5052129;28;20443;-56
2022/09/17 09:49:18;;;;;;;6.80;1.77;;;20.60;54.60;;;;;;5059599;28;20044;-56
2022/09/17 09:51:46;;;;;;;7.68;1.50;;;20.60;54.60;;;;;;5053248;28;20375;-58
2022/09/17 09:54:43;;;;;;;3.85;1.50;;;20.60;54.70;;;;;;5064517;28;20070;-57
2022/09/17 09:57:21;;;;;;;5.38;1.60;;;20.60;54.70;;;;;;5065942;28;20479;-57
2022/09/17 09:59:49;;;;;;;5.85;1.58;;;20.60;54.70;;;;;;5077904;28;20732;-57
2022/09/17 10:02:17;;;;;;;6.68;1.63;;;20.60;54.70;;;;;;5090413;28;20024;-57
2022/09/17 10:04:46;;;;;;;5.15;1.48;;;20.60;54.80;;;;;;5078871;28;20047;-57
2022/09/17 10:07:14;;;;;;;4.70;1.70;;;20.60;55.40;;;;;;5079440;28;20024;-57
2022/09/17 10:09:45;;;;;;;6.00;1.60;;;20.60;54.80;;;;;;5061691;28;20495;-57
2022/09/17 10:12:14;;;;;;;6.47;1.65;;;20.60;54.50;;;;;;5049359;28;20051;-57
2022/09/17 10:14:44;;;;;;;4.00;1.58;;;20.60;54.60;;;;;;5086421;28;20028;-56
2022/09/17 10:17:20;;;;;;;5.90;1.80;;;20.50;54.60;;;;;;5051817;28;20456;-57
2022/09/17 10:20:15;;;;;;;3.88;1.38;;;20.50;55.40;;;;;;5051104;28;20037;-57
2022/09/17 10:22:46;;;;;;;5.68;1.70;;;20.60;54.60;;;;;;5050077;28;20027;-57
2022/09/17 10:25:34;;;;;;;6.40;1.50;;;20.50;54.50;;;;;;5049797;28;20025;-57
2022/09/17 10:28:20;;;;;;;5.22;1.98;;;20.50;55.00;;;;;;5051486;28;20079;-56
2022/09/17 10:31:00;;;;;;;5.72;1.70;;;20.50;54.20;;;;;;5050161;28;20033;-57
2022/09/17 10:33:31;;;;;;;5.10;1.60;;;20.50;54.10;;;;;;5062632;28;20044;-56
2022/09/17 10:36:13;;;;;;;5.47;1.80;;;20.50;54.00;;;;;;5059693;28;20056;-56
2022/09/17 10:38:46;;;;;;;6.18;1.70;;;20.50;53.80;;;;;;5058888;28;20827;-56
2022/09/17 10:41:16;;;;;;;7.03;1.70;;;20.50;53.90;;;;;;5048844;28;20035;-56
2022/09/17 10:43:44;;;;;;;5.22;1.60;;;20.50;54.10;;;;;;5055464;28;20112;-56
2022/09/17 10:46:17;;;;;;;4.63;1.50;;;20.50;54.20;;;;;;5071342;28;20151;-60
2022/09/17 10:49:04;;;;;;;4.95;1.48;;;20.50;54.30;;;;;;5066350;28;20028;-55
2022/09/17 10:51:33;;;;;;;4.28;1.48;;;20.50;54.00;;;;;;5062190;28;20070;-52
2022/09/17 10:54:13;;;;;;;5.20;1.50;;;20.50;53.80;;;;;;5056234;28;20032;-53
2022/09/17 10:56:48;;;;;;;5.35;1.80;;;20.50;53.80;;;;;;5062396;28;20503;-53
2022/09/17 10:59:26;;;;;;;4.72;1.60;;;20.50;53.70;;;;;;5064766;28;20032;-53
2022/09/17 11:02:25;;;;;;;5.05;1.40;;;20.50;53.20;;;;;;5067370;28;20025;-52
2022/09/17 11:05:32;;;;;;;4.80;1.63;;;20.50;53.10;;;;;;5059264;28;20033;-54
2022/09/17 11:08:41;;;;;;;4.25;1.40;;;20.50;53.20;;;;;;5060442;28;20068;-54
2022/09/17 11:11:15;;;;;;;4.57;1.50;;;20.50;53.10;;;;;;5054973;28;20059;-53
2022/09/17 11:13:49;;;;;;;4.43;1.50;;;20.40;53.20;;;;;;5062301;28;20365;-54
2022/09/17 11:16:35;;;;;;;4.95;1.50;;;20.50;53.20;;;;;;5050509;28;20349;-54
2022/09/17 11:19:35;;;;;;;6.60;1.95;;;20.50;53.20;;;;;;5050743;28;20017;-53
2022/09/17 11:22:09;;;;;;;5.88;1.52;;;20.40;53.70;;;;;;5060660;28;20036;-53
2022/09/17 11:25:02;;;;;;;5.80;1.40;;;20.40;53.60;;;;;;5059650;28;20467;-53
2022/09/17 11:27:53;;;;;;;4.53;1.52;;;20.40;53.40;;;;;;5051542;28;20020;-53
2022/09/17 11:30:23;;;;;;;4.25;1.50;;;20.40;53.20;;;;;;5056762;28;20040;-53
2022/09/17 11:33:18;;;;;;;4.90;1.50;;;20.40;53.30;;;;;;5056210;28;20032;-52
2022/09/17 11:36:11;;;;;;;4.88;1.52;;;20.40;53.20;;;;;;5048366;28;20029;-53
2022/09/17 11:38:49;;;;;;;3.55;1.30;;;20.40;53.20;;;;;;5065051;28;20124;-52
2022/09/17 11:41:43;;;;;;;4.60;1.40;;;20.40;53.50;;;;;;5064657;28;20021;-53
2022/09/17 11:44:14;;;;;;;4.65;1.23;;;20.40;53.30;;;;;;5054654;28;20571;-55
2022/09/17 11:46:58;;;;;;;4.78;1.38;;;20.40;53.50;;;;;;5063423;28;20055;-54
2022/09/17 11:49:53;;;;;;;4.53;1.40;;;20.40;53.70;;;;;;5068238;28;20059;-54
2022/09/17 11:52:29;;;;;;;5.43;1.33;;;20.40;53.40;;;;;;5054190;28;20036;-52
2022/09/17 11:55:16;;;;;;;4.63;1.25;;;20.40;53.10;;;;;;5049162;28;20388;-52
2022/09/17 11:57:45;;;;;;;5.47;1.70;;;20.40;53.10;;;;;;5057745;28;20116;-54
2022/09/17 12:00:21;;;;;;;5.20;1.40;;;20.40;53.40;;;;;;5067139;28;20523;-53
2022/09/17 12:02:58;;;;;;;5.95;1.50;;;20.40;53.20;;;;;;5064286;28;20025;-53
2022/09/17 12:05:44;;;;;;;5.53;1.50;;;20.40;53.00;;;;;;5064174;28;20059;-53
2022/09/17 12:08:21;;;;;;;4.57;1.35;;;20.40;53.10;;;;;;5058082;28;20020;-53
2022/09/17 12:11:13;;;;;;;4.50;1.30;;;20.40;53.20;;;;;;5048908;28;20029;-54
2022/09/17 12:13:52;;;;;;;5.03;1.45;;;20.40;53.10;;;;;;5066686;28;20054;-53
2022/09/17 12:16:27;;;;;;;3.80;1.30;;;20.40;53.10;;;;;;5058416;28;20100;-52
2022/09/17 12:19:19;;;;;;;4.38;1.17;;;20.40;53.00;;;;;;5048907;28;20072;-53
2022/09/17 12:22:05;;;;;;;3.85;1.10;;;20.40;52.90;;;;;;5071799;28;20017;-53
2022/09/17 12:24:33;;;;;;;4.65;1.20;;;20.40;52.90;;;;;;5056939;28;20029;-52
2022/09/17 12:27:36;;;;;;;5.60;1.65;;;20.30;53.10;;;;;;5058634;28;20037;-52
2022/09/17 12:30:13;;;;;;;7.75;1.30;;;20.40;53.40;;;;;;5048684;28;20371;-52
2022/09/17 12:32:46;;;;;;;4.88;1.40;;;20.40;53.70;;;;;;5053491;28;20028;-58
2022/09/17 12:35:33;;;;;;;5.00;1.55;;;20.40;54.30;;;;;;5055429;28;20021;-54
2022/09/17 12:38:29;;;;;;;5.00;1.50;;;20.40;54.60;;;;;;5067287;28;20032;-53
2022/09/17 12:40:57;;;;;;;5.20;1.70;;;20.40;55.10;;;;;;5061229;28;20060;-53
2022/09/17 12:43:54;;;;;;;6.47;1.42;;;20.40;54.30;;;;;;5066837;28;20052;-52
2022/09/17 12:46:39;;;;;;;7.03;1.33;;;20.40;54.20;;;;;;5063571;28;20363;-52
2022/09/17 12:49:18;;;;;;;6.22;1.20;;;20.40;54.00;;;;;;5061437;28;20108;-52
2022/09/17 12:51:58;;;;;;;5.95;1.40;;;20.40;53.70;;;;;;5062149;28;20048;-53
2022/09/17 12:54:54;;;;;;;5.30;1.48;;;20.40;53.30;;;;;;5051770;28;20053;-53
2022/09/17 12:57:28;;;;;;;3.30;1.20;;;20.40;53.50;;;;;;5052472;28;20025;-53
2022/09/17 13:00:00;;;;;;;5.97;1.40;;;20.40;53.50;;;;;;5051994;28;20024;-53
2022/09/17 13:02:48;;;;;;;;;;;20.40;53.20;;;;;;5067982;28;20036;-52
2022/09/17 13:05:43;;;;;;;4.25;1.08;;;20.40;53.10;;;;;;5041340;28;19919;-52
2022/09/17 13:08:38;;;;;;;6.45;1.20;;;20.40;52.90;;;;;;5062770;28;20044;-53
2022/09/17 13:11:27;;;;;;;5.53;1.30;;;20.30;52.80;;;;;;5051570;28;20025;-53
2022/09/17 13:14:20;;;;;;;3.45;1.20;;;20.30;52.80;;;;;;5070616;28;20021;-53
2022/09/17 13:17:05;;;;;;;5.15;1.20;;;20.30;52.50;;;;;;5070422;28;20025;-53
2022/09/17 13:20:01;;;;;;;4.63;1.40;;;20.30;52.40;;;;;;5056977;28;20024;-53
2022/09/17 13:22:42;;;;;;;3.60;1.33;;;20.30;52.20;;;;;;5066818;28;20047;-52
2022/09/17 13:25:14;;;;;;;3.63;1.30;;;20.30;52.20;;;;;;5052614;28;20143;-53
2022/09/17 13:27:44;;;;;;;5.35;1.20;;;20.30;52.50;;;;;;5056060;28;20034;-53
2022/09/17 13:30:16;;;;;;;6.55;1.10;;;20.30;52.40;;;;;;5066283;28;20025;-57
2022/09/17 13:32:48;;;;;;;3.22;1.00;;;20.30;52.40;;;;;;5052899;28;20048;-53